createdAt,value
2022-10-13T05:27:08.784Z,11.09
2022-10-13T05:48:55.275Z,11.04
2022-10-13T06:18:38.185Z,11.07
2022-10-13T06:23:38.216Z,11.04
2022-10-13T06:28:38.069Z,11.10
2022-10-13T06:33:38.205Z,11.11
2022-10-13T06:38:37.961Z,11.19
2022-10-13T06:43:40.390Z,11.25
2022-10-13T06:48:37.888Z,11.22
2022-10-13T06:53:37.816Z,11.29
2022-10-13T06:58:37.807Z,11.36
2022-10-13T07:03:37.686Z,11.39
2022-10-13T07:08:37.637Z,11.42
2022-10-13T07:13:38.089Z,11.54
2022-10-13T07:18:37.443Z,11.64
2022-10-13T07:23:37.605Z,11.75
2022-10-13T07:28:37.545Z,11.91
2022-10-13T07:33:38.489Z,12.17
2022-10-13T07:38:37.440Z,12.45
2022-10-13T07:43:37.325Z,12.70
2022-10-13T07:48:37.223Z,12.85
2022-10-13T07:53:37.107Z,13.07
2022-10-13T07:58:37.076Z,13.33
2022-10-13T08:08:37.162Z,13.85
2022-10-13T08:13:36.863Z,14.24
2022-10-13T08:18:37.979Z,14.43
2022-10-13T08:23:36.972Z,14.77
2022-10-13T08:28:36.898Z,14.95
2022-10-13T08:33:36.657Z,15.46
2022-10-13T08:38:36.719Z,16.21
2022-10-13T08:43:49.097Z,16.56
2022-10-13T08:48:37.511Z,16.53
2022-10-13T08:53:36.507Z,16.35
2022-10-13T08:58:36.521Z,15.93
2022-10-13T09:03:36.581Z,15.72
2022-10-13T09:08:36.530Z,15.78
2022-10-13T09:13:36.297Z,15.76
2022-10-13T09:18:36.138Z,15.86
2022-10-13T09:23:39.530Z,16.12
2022-10-13T09:28:37.226Z,16.17
2022-10-13T09:33:36.294Z,16.11
2022-10-13T09:38:37.189Z,16.01
2022-10-13T09:43:36.117Z,16.17
2022-10-13T09:48:36.095Z,16.15
2022-10-13T09:53:38.030Z,16.28
2022-10-13T09:58:35.854Z,16.53
2022-10-13T10:03:35.924Z,16.50
2022-10-13T10:08:58.115Z,16.76
2022-10-13T12:36:28.609Z,17.18
2022-10-13T12:41:38.036Z,17.07
2022-10-13T12:46:25.733Z,16.97
2022-10-13T12:51:25.835Z,16.82
2022-10-13T12:56:25.744Z,16.57
2022-10-13T13:01:26.697Z,16.31
2022-10-13T13:06:25.647Z,16.24
2022-10-13T13:11:26.571Z,16.25
2022-10-13T13:16:25.444Z,16.38
2022-10-13T13:21:25.360Z,16.45
2022-10-13T13:26:26.483Z,16.49
2022-10-13T13:31:27.809Z,16.43
2022-10-13T13:36:25.586Z,16.41
2022-10-13T13:41:26.453Z,16.02
2022-10-13T13:46:29.684Z,16.02
2022-10-13T13:51:25.118Z,16.00
2022-10-13T13:56:26.158Z,16.15
2022-10-13T14:01:26.391Z,15.97
2022-10-13T14:31:49.037Z,16.14
2022-10-13T14:36:47.626Z,15.94
2022-10-13T14:41:46.676Z,16.00
2022-10-13T14:53:07.111Z,15.93
2022-10-13T14:58:06.457Z,15.86
2022-10-13T15:03:06.465Z,15.86
2022-10-13T15:08:16.941Z,15.83
2022-10-13T15:13:06.926Z,15.83
2022-10-13T15:18:06.180Z,15.87
2022-10-13T15:23:06.127Z,15.86
2022-10-13T15:28:08.589Z,15.87
2022-10-13T15:33:06.051Z,15.83
2022-10-13T15:38:06.319Z,15.83
2022-10-13T15:43:06.692Z,15.59
2022-10-13T15:48:06.381Z,15.57
2022-10-13T15:53:05.842Z,15.49
2022-10-13T15:58:19.135Z,15.56
2022-10-13T16:03:05.698Z,15.53
2022-10-13T16:08:06.038Z,15.49
2022-10-13T16:13:05.645Z,15.49
2022-10-13T16:18:05.506Z,15.41
2022-10-13T16:23:05.666Z,15.35
2022-10-13T16:28:06.568Z,15.25
2022-10-13T16:33:05.501Z,15.20
2022-10-13T16:38:05.360Z,15.16
2022-10-13T16:43:06.413Z,15.03
2022-10-13T16:48:05.287Z,15.02
2022-10-13T16:53:05.326Z,14.92
2022-10-13T16:58:05.117Z,14.81
2022-10-13T17:03:08.419Z,14.80
2022-10-13T17:08:06.333Z,14.81
2022-10-13T17:13:04.927Z,14.83
2022-10-13T17:18:04.900Z,14.83
2022-10-13T17:23:06.948Z,14.88
2022-10-13T17:28:04.871Z,14.86
2022-10-13T17:33:04.798Z,14.89
2022-10-13T17:38:04.667Z,14.78
2022-10-13T17:43:04.785Z,14.81
2022-10-13T17:48:04.549Z,14.81
2022-10-13T17:53:04.581Z,14.83
2022-10-13T17:58:04.435Z,14.81
2022-10-13T18:03:04.434Z,14.81
2022-10-13T18:08:04.399Z,14.81
2022-10-13T18:13:04.338Z,14.77
2022-10-13T18:18:04.250Z,14.75
2022-10-13T18:23:04.212Z,14.70
2022-10-13T18:28:04.204Z,14.64
2022-10-13T18:33:04.250Z,14.65
2022-10-13T18:38:04.163Z,14.60
2022-10-13T18:43:03.951Z,14.64
2022-10-13T18:48:04.003Z,14.43
2022-10-13T18:53:03.970Z,14.33
2022-10-13T18:58:03.969Z,14.32
2022-10-13T19:03:03.763Z,14.27
2022-10-13T19:08:03.676Z,14.27
2022-10-13T19:13:03.614Z,14.20
2022-10-13T19:18:03.609Z,14.14
2022-10-13T19:23:03.655Z,14.12
2022-10-13T19:28:03.771Z,14.14
2022-10-13T19:33:03.445Z,14.14
2022-10-13T19:38:03.425Z,14.10
2022-10-13T19:43:03.316Z,14.14
2022-10-13T19:48:03.304Z,14.14
2022-10-13T19:53:03.334Z,14.06
2022-10-13T19:58:03.293Z,14.09
2022-10-13T20:03:03.137Z,14.27
2022-10-13T20:08:03.280Z,14.18
2022-10-13T20:13:02.987Z,14.32
2022-10-13T20:18:03.930Z,14.29
2022-10-13T20:23:02.872Z,14.24
2022-10-13T20:28:02.963Z,14.06
2022-10-13T20:33:02.986Z,13.91
2022-10-13T20:38:02.987Z,13.85
2022-10-13T20:43:02.639Z,13.81
2022-10-13T20:48:02.599Z,13.75
2022-10-13T20:53:02.517Z,13.75
2022-10-13T20:58:02.512Z,13.73
2022-10-13T21:03:02.508Z,13.73
2022-10-13T21:08:02.470Z,13.71
2022-10-13T21:13:02.408Z,13.57
2022-10-13T21:18:02.343Z,13.51
2022-10-13T21:23:02.189Z,13.51
2022-10-13T21:28:02.153Z,13.48
2022-10-13T21:33:02.180Z,13.52
2022-10-13T21:38:02.058Z,13.55
2022-10-13T21:43:02.014Z,13.52
2022-10-13T21:48:01.951Z,13.54
2022-10-13T21:53:01.992Z,13.54
2022-10-13T21:58:05.215Z,13.55
2022-10-13T22:03:01.771Z,13.46
2022-10-13T22:08:01.789Z,13.51
2022-10-13T22:13:01.716Z,13.51
2022-10-13T22:18:01.562Z,13.52
2022-10-13T22:23:01.581Z,13.54
2022-10-13T22:28:01.551Z,13.60
2022-10-13T22:33:02.393Z,13.55
2022-10-13T22:38:01.413Z,13.48
2022-10-13T22:43:01.378Z,13.49
2022-10-13T22:48:01.419Z,13.48
2022-10-13T22:53:01.364Z,13.52
2022-10-13T22:58:01.271Z,13.54
2022-10-13T23:03:01.158Z,13.51
2022-10-13T23:08:01.046Z,13.54
2022-10-13T23:13:00.976Z,13.52
2022-10-13T23:18:00.953Z,13.54
2022-10-13T23:23:01.120Z,13.57
2022-10-13T23:28:01.018Z,13.59
2022-10-13T23:33:01.890Z,13.57
2022-10-13T23:38:00.733Z,13.57
2022-10-13T23:43:00.719Z,13.57
2022-10-13T23:48:00.676Z,13.55
2022-10-13T23:53:01.685Z,13.60
2022-10-13T23:58:00.687Z,13.60
